Time;durP1;ratioP1;P1;durP2;ratioP2;P2;SDS_P1;SDS_P2;PMS_P1;PMS_P2;Temp;Humidity;BMP_temperature;BMP_pressure;BME280_temperature;BME280_humidity;BME280_pressure;Samples;Min_cycle;Max_cycle;Signal;HPM_P1;HPM_P2
2020/12/08 00:00:58;;;;;;;56.53;29.15;;;4.10;99.90;;;;;;5073470;28;20047;-83
2020/12/08 00:03:24;;;;;;;60.28;30.45;;;4.00;99.90;;;;;;5073135;28;20058;-83
2020/12/08 00:05:49;;;;;;;61.70;28.95;;;4.00;99.90;;;;;;5073399;28;20089;-83
2020/12/08 00:08:15;;;;;;;58.72;31.38;;;4.00;99.90;;;;;;5091027;28;20042;-83
2020/12/08 00:10:41;;;;;;;55.67;29.95;;;4.00;99.90;;;;;;5090894;28;20016;-83
2020/12/08 00:13:07;;;;;;;60.38;30.38;;;4.00;99.90;;;;;;5072786;28;20031;-83
2020/12/08 00:15:32;;;;;;;58.78;30.38;;;4.00;99.90;;;;;;5073054;28;20043;-84
2020/12/08 00:17:58;;;;;;;58.70;30.38;;;3.90;99.90;;;;;;5091168;28;20032;-83
2020/12/08 00:20:23;;;;;;;60.75;30.73;;;4.00;99.90;;;;;;5072225;28;20116;-83
2020/12/08 00:22:49;;;;;;;53.58;28.80;;;4.00;99.90;;;;;;5072748;28;20444;-83
2020/12/08 00:25:16;;;;;;;52.00;28.85;;;4.00;99.90;;;;;;5090998;28;20055;-84
2020/12/08 00:27:41;;;;;;;53.97;27.98;;;4.00;99.90;;;;;;5074960;28;20020;-84
2020/12/08 00:30:12;;;;;;;47.08;26.42;;;4.10;99.90;;;;;;5098116;28;20039;-82
2020/12/08 00:32:39;;;;;;;43.72;24.90;;;4.00;99.90;;;;;;5072711;28;20476;-83
2020/12/08 00:35:07;;;;;;;49.40;27.17;;;4.00;99.90;;;;;;5072336;28;20109;-84
2020/12/08 00:37:33;;;;;;;50.28;28.58;;;4.00;99.90;;;;;;5072859;28;20469;-83
2020/12/08 00:39:58;;;;;;;44.75;24.73;;;4.00;99.90;;;;;;5072764;28;20085;-83
2020/12/08 00:42:24;;;;;;;53.85;27.65;;;3.90;99.90;;;;;;5071902;28;20032;-83
2020/12/08 00:44:49;;;;;;;48.50;27.55;;;3.90;99.90;;;;;;5072439;28;20032;-83
2020/12/08 00:47:15;;;;;;;47.22;25.95;;;3.80;99.90;;;;;;5073611;28;20073;-83
2020/12/08 00:49:40;;;;;;;55.80;27.70;;;3.80;99.90;;;;;;5072091;28;20028;-83
2020/12/08 00:52:06;;;;;;;49.33;27.70;;;3.80;99.90;;;;;;5072740;28;20028;-84
2020/12/08 00:54:31;;;;;;;49.05;27.15;;;3.70;99.90;;;;;;5072244;28;20024;-83
2020/12/08 00:56:57;;;;;;;46.17;26.60;;;3.70;99.90;;;;;;5072776;28;20023;-84
2020/12/08 00:59:22;;;;;;;46.10;26.77;;;3.60;99.90;;;;;;5072451;28;20032;-84
2020/12/08 01:01:48;;;;;;;52.17;27.10;;;3.60;99.90;;;;;;5072323;28;20024;-84
2020/12/08 01:04:13;;;;;;;50.45;28.88;;;3.70;99.90;;;;;;5071812;28;20103;-83
2020/12/08 01:06:40;;;;;;;51.47;28.13;;;3.70;99.90;;;;;;5071852;28;20116;-83
2020/12/08 01:09:06;;;;;;;50.25;27.88;;;3.60;99.90;;;;;;5071695;28;20111;-83
2020/12/08 01:11:41;;;;;;;46.80;25.50;;;3.60;99.90;;;;;;5090994;28;20473;-83
2020/12/08 01:14:12;;;;;;;52.47;27.45;;;3.60;99.90;;;;;;5070902;28;20027;-83
2020/12/08 01:16:39;;;;;;;46.90;27.25;;;3.60;99.90;;;;;;5089665;28;20036;-83
2020/12/08 01:19:05;;;;;;;49.10;26.92;;;3.70;99.90;;;;;;5074298;28;20073;-83
2020/12/08 01:21:31;;;;;;;52.22;27.00;;;3.70;99.90;;;;;;5091207;28;20511;-83
2020/12/08 01:23:56;;;;;;;48.38;26.42;;;3.70;99.90;;;;;;5073285;28;20036;-83
2020/12/08 01:26:26;;;;;;;48.70;27.10;;;3.60;99.90;;;;;;5071838;28;20070;-83
2020/12/08 01:28:52;;;;;;;48.63;28.13;;;3.60;99.90;;;;;;5071854;28;20024;-83
2020/12/08 01:31:17;;;;;;;47.58;26.25;;;3.60;99.90;;;;;;5071866;28;20028;-83
2020/12/08 01:33:43;;;;;;;51.65;29.33;;;3.60;99.90;;;;;;5071309;28;20024;-83
2020/12/08 01:36:09;;;;;;;44.20;25.00;;;3.60;99.90;;;;;;5071636;28;20050;-83
2020/12/08 01:38:35;;;;;;;46.03;26.83;;;3.60;99.90;;;;;;5071515;28;20028;-83
2020/12/08 01:41:01;;;;;;;49.78;28.58;;;3.70;99.90;;;;;;5071563;28;20036;-83
2020/12/08 01:43:26;;;;;;;47.08;27.73;;;3.60;99.90;;;;;;5071459;28;20366;-83
2020/12/08 01:45:52;;;;;;;51.22;27.52;;;3.60;99.90;;;;;;5071737;28;20126;-83
2020/12/08 01:48:17;;;;;;;44.90;25.83;;;3.60;99.90;;;;;;5071290;28;20472;-83
2020/12/08 01:50:44;;;;;;;44.80;25.35;;;3.60;99.90;;;;;;5071125;28;20081;-83
2020/12/08 01:53:10;;;;;;;45.15;25.88;;;3.60;99.90;;;;;;5071239;28;20557;-83
2020/12/08 01:55:38;;;;;;;52.63;28.33;;;3.60;99.90;;;;;;5074946;28;20024;-84
2020/12/08 01:58:20;;;;;;;51.85;28.38;;;3.50;99.90;;;;;;5075519;28;20118;-83
2020/12/08 02:00:47;;;;;;;49.72;26.77;;;3.50;99.90;;;;;;5093499;28;20032;-83
2020/12/08 02:03:13;;;;;;;57.60;28.88;;;3.50;99.90;;;;;;5075037;28;20069;-83
2020/12/08 02:05:39;;;;;;;49.22;26.77;;;3.40;99.90;;;;;;5074801;28;20035;-83
2020/12/08 02:08:04;;;;;;;47.78;26.75;;;3.40;99.90;;;;;;5074870;28;20016;-83
2020/12/08 02:10:30;;;;;;;49.38;27.98;;;3.30;99.90;;;;;;5075664;28;20056;-83
2020/12/08 02:12:56;;;;;;;49.83;26.73;;;3.20;99.90;;;;;;5075218;28;20024;-83
2020/12/08 02:15:21;;;;;;;50.58;28.80;;;3.20;99.90;;;;;;5076124;28;20380;-84
2020/12/08 02:17:47;;;;;;;54.97;25.77;;;3.20;99.90;;;;;;5099084;28;20046;-84
2020/12/08 02:20:13;;;;;;;49.58;26.85;;;3.20;99.90;;;;;;5082522;28;20126;-83
2020/12/08 02:22:42;;;;;;;50.53;28.15;;;3.20;99.90;;;;;;5074829;28;20016;-83
2020/12/08 02:25:08;;;;;;;46.28;26.60;;;3.20;99.90;;;;;;5075105;28;20055;-82
2020/12/08 02:27:33;;;;;;;50.67;26.67;;;3.30;99.90;;;;;;5092512;28;20020;-82
2020/12/08 02:29:59;;;;;;;49.97;25.85;;;3.30;99.90;;;;;;5074077;28;20138;-82
2020/12/08 02:32:24;;;;;;;48.13;26.65;;;3.30;99.90;;;;;;5074900;28;20032;-84
2020/12/08 02:34:50;;;;;;;44.80;25.08;;;3.30;99.90;;;;;;5067073;28;20069;-82
2020/12/08 02:37:15;;;;;;;51.78;26.83;;;3.30;99.90;;;;;;5068341;28;20029;-83
2020/12/08 02:39:41;;;;;;;49.33;26.67;;;3.30;99.90;;;;;;5056625;28;20032;-82
2020/12/08 02:42:06;;;;;;;45.83;24.98;;;3.30;99.90;;;;;;5074953;28;20028;-83
2020/12/08 02:44:32;;;;;;;51.92;27.05;;;3.40;99.90;;;;;;5074470;28;20024;-83
2020/12/08 02:46:57;;;;;;;50.05;26.13;;;3.50;99.90;;;;;;5077456;28;20061;-84
2020/12/08 02:49:23;;;;;;;39.50;23.40;;;3.50;99.90;;;;;;5074706;28;20024;-83
2020/12/08 02:51:48;;;;;;;42.28;24.65;;;3.60;99.90;;;;;;5075181;28;20023;-83
2020/12/08 02:54:14;;;;;;;44.65;25.80;;;3.60;99.90;;;;;;5074748;28;20074;-83
2020/12/08 02:56:39;;;;;;;45.40;25.10;;;3.60;99.90;;;;;;5093117;28;20020;-83
2020/12/08 02:59:05;;;;;;;44.97;25.73;;;3.70;99.90;;;;;;5092300;28;20042;-83
2020/12/08 03:01:31;;;;;;;40.40;23.30;;;3.70;99.90;;;;;;5074830;28;20116;-83
2020/12/08 03:03:56;;;;;;;41.72;23.88;;;3.80;99.90;;;;;;5074312;28;20028;-83
2020/12/08 03:06:22;;;;;;;41.47;23.02;;;3.90;99.90;;;;;;5072125;28;20041;-82
2020/12/08 03:08:49;;;;;;;41.92;24.73;;;3.80;99.90;;;;;;5074539;28;20049;-82
2020/12/08 03:11:15;;;;;;;38.65;23.13;;;3.90;99.90;;;;;;5074495;28;20028;-83
2020/12/08 03:13:43;;;;;;;40.33;24.02;;;3.90;99.90;;;;;;5092351;28;20048;-83
2020/12/08 03:16:10;;;;;;;37.83;21.58;;;4.00;99.90;;;;;;5074462;28;20083;-83
2020/12/08 03:18:35;;;;;;;43.55;23.40;;;4.10;99.90;;;;;;5073771;28;20027;-83
2020/12/08 03:21:01;;;;;;;44.97;23.45;;;4.00;99.90;;;;;;5073842;28;20486;-83
2020/12/08 03:23:27;;;;;;;41.20;23.15;;;4.00;99.90;;;;;;5073960;28;20031;-83
2020/12/08 03:25:52;;;;;;;40.80;22.30;;;4.00;99.90;;;;;;5092133;28;20031;-83
2020/12/08 03:28:18;;;;;;;38.95;21.77;;;4.00;99.90;;;;;;5073346;28;20055;-83
2020/12/08 03:30:43;;;;;;;40.22;22.88;;;4.00;99.90;;;;;;5091417;28;20063;-83
2020/12/08 03:33:09;;;;;;;45.80;23.60;;;4.10;99.90;;;;;;5073069;28;20031;-83
2020/12/08 03:35:34;;;;;;;43.55;23.20;;;4.10;99.90;;;;;;5073657;28;20028;-82
2020/12/08 03:38:00;;;;;;;42.25;23.80;;;4.10;99.90;;;;;;5074048;28;20035;-83
2020/12/08 03:40:25;;;;;;;41.13;21.65;;;4.10;99.90;;;;;;5074574;28;20040;-83
2020/12/08 03:42:51;;;;;;;43.05;22.27;;;4.10;99.90;;;;;;5074015;28;20114;-83
2020/12/08 03:45:16;;;;;;;44.92;22.85;;;4.10;99.90;;;;;;5075034;28;20066;-82
2020/12/08 03:47:42;;;;;;;42.53;22.50;;;4.20;99.90;;;;;;5091313;28;20028;-83
2020/12/08 03:50:07;;;;;;;46.97;25.02;;;4.20;99.90;;;;;;5091149;28;20031;-83
2020/12/08 03:52:33;;;;;;;38.55;22.95;;;4.20;99.90;;;;;;5073593;28;20451;-83
2020/12/08 03:54:58;;;;;;;39.10;22.58;;;4.20;99.90;;;;;;5073136;28;20101;-83
2020/12/08 03:57:25;;;;;;;40.72;24.42;;;4.30;99.90;;;;;;5072740;28;20038;-83
2020/12/08 03:59:51;;;;;;;36.63;21.88;;;4.30;99.90;;;;;;5072445;28;20085;-83
2020/12/08 04:02:16;;;;;;;44.08;22.60;;;4.40;99.90;;;;;;5072806;28;20016;-83
2020/12/08 04:04:42;;;;;;;37.78;22.25;;;4.40;99.90;;;;;;5091159;28;20493;-84
2020/12/08 04:07:07;;;;;;;44.78;22.83;;;4.50;99.90;;;;;;5072684;28;20039;-84
2020/12/08 04:09:33;;;;;;;40.58;21.23;;;4.50;99.90;;;;;;5073158;28;20032;-84
2020/12/08 04:11:58;;;;;;;41.30;22.05;;;4.50;99.90;;;;;;5072413;28;20039;-84
2020/12/08 04:14:24;;;;;;;48.22;23.08;;;4.50;99.90;;;;;;5091080;28;20028;-83
2020/12/08 04:16:49;;;;;;;59.42;23.25;;;4.50;99.90;;;;;;5047852;28;20041;-83
2020/12/08 04:19:16;;;;;;;40.25;23.35;;;4.50;99.90;;;;;;5040831;28;20046;-83
2020/12/08 04:21:42;;;;;;;42.88;23.63;;;4.50;99.90;;;;;;5048576;28;20103;-84
2020/12/08 04:24:08;;;;;;;43.30;24.17;;;4.50;99.90;;;;;;5048734;28;20049;-83
2020/12/08 04:26:33;;;;;;;39.47;22.77;;;4.50;99.90;;;;;;5048861;28;20466;-84
2020/12/08 04:29:00;;;;;;;42.90;23.10;;;4.60;99.90;;;;;;5062467;28;20025;-83
2020/12/08 04:31:27;;;;;;;39.20;23.33;;;4.50;99.90;;;;;;5048330;28;20079;-83
2020/12/08 04:33:53;;;;;;;43.42;22.83;;;4.50;99.90;;;;;;5048135;28;20035;-84
2020/12/08 04:36:20;;;;;;;39.97;22.90;;;4.50;99.90;;;;;;5031771;28;20041;-83
2020/12/08 04:38:46;;;;;;;43.75;22.23;;;4.50;99.90;;;;;;5047355;28;20021;-83
2020/12/08 04:41:18;;;;;;;43.90;23.08;;;4.50;99.90;;;;;;5047388;28;20177;-83
2020/12/08 04:43:44;;;;;;;44.80;24.10;;;4.60;99.90;;;;;;5047232;28;20017;-83
2020/12/08 04:46:10;;;;;;;39.22;22.63;;;4.60;99.90;;;;;;5047341;28;20227;-83
2020/12/08 04:48:37;;;;;;;48.75;25.55;;;4.60;99.90;;;;;;5067721;28;20105;-83
2020/12/08 04:51:06;;;;;;;45.92;23.52;;;4.60;99.90;;;;;;5072068;28;20544;-83
2020/12/08 04:53:33;;;;;;;42.20;24.15;;;4.60;99.90;;;;;;5071536;28;20105;-83
2020/12/08 04:55:58;;;;;;;37.50;22.20;;;4.70;99.90;;;;;;5071551;28;20031;-83
2020/12/08 04:58:24;;;;;;;45.42;25.25;;;4.70;99.90;;;;;;5070749;28;20488;-84
2020/12/08 05:00:50;;;;;;;38.15;22.98;;;4.70;99.90;;;;;;5071271;28;20181;-82
2020/12/08 05:03:25;;;;;;;42.28;24.10;;;4.70;99.90;;;;;;5089518;28;20024;-83
2020/12/08 05:05:51;;;;;;;42.60;25.15;;;4.70;99.90;;;;;;5063066;28;20032;-84
2020/12/08 05:08:17;;;;;;;43.53;25.38;;;4.70;99.90;;;;;;5071844;28;20032;-83
2020/12/08 05:10:44;;;;;;;44.72;25.02;;;4.80;99.90;;;;;;5089443;28;20024;-83
2020/12/08 05:13:26;;;;;;;50.83;25.98;;;4.80;99.90;;;;;;5071696;28;20488;-83
2020/12/08 05:16:05;;;;;;;50.25;27.00;;;4.70;99.90;;;;;;5071958;28;20031;-84
2020/12/08 05:18:33;;;;;;;45.58;26.42;;;4.80;99.90;;;;;;5071798;28;20028;-85
2020/12/08 05:21:11;;;;;;;45.53;23.48;;;4.80;99.90;;;;;;5071425;28;20054;-83
2020/12/08 05:23:41;;;;;;;46.22;24.17;;;4.80;99.90;;;;;;5062251;28;20420;-83
2020/12/08 05:26:08;;;;;;;46.55;25.73;;;4.80;99.90;;;;;;5071079;28;20797;-83
2020/12/08 05:28:35;;;;;;;50.15;25.92;;;4.80;99.90;;;;;;5070943;28;20028;-83
2020/12/08 05:31:00;;;;;;;47.08;26.05;;;4.80;99.90;;;;;;5088793;28;20028;-83
2020/12/08 05:33:26;;;;;;;47.92;26.60;;;4.80;99.90;;;;;;5088245;28;20020;-83
2020/12/08 05:35:55;;;;;;;47.15;26.52;;;4.80;99.90;;;;;;5067526;28;20381;-83
2020/12/08 05:38:25;;;;;;;47.05;26.27;;;4.70;99.90;;;;;;5085409;28;20028;-83
2020/12/08 05:40:51;;;;;;;50.10;27.40;;;4.70;99.90;;;;;;5069940;28;20119;-83
2020/12/08 05:43:19;;;;;;;43.47;25.13;;;4.70;99.90;;;;;;5080019;28;20476;-83
2020/12/08 05:45:48;;;;;;;42.85;24.25;;;4.70;99.90;;;;;;5069589;28;20065;-84
2020/12/08 05:48:21;;;;;;;41.72;24.85;;;4.70;99.90;;;;;;5088079;28;20013;-84
2020/12/08 05:50:47;;;;;;;45.67;24.30;;;4.70;99.90;;;;;;5065488;28;20031;-84
2020/12/08 05:53:16;;;;;;;48.00;26.25;;;4.70;99.90;;;;;;5073220;28;20020;-84
2020/12/08 05:55:42;;;;;;;44.90;24.88;;;4.70;99.90;;;;;;5068512;28;20536;-84
2020/12/08 05:58:10;;;;;;;47.13;24.92;;;4.70;99.90;;;;;;5068241;28;20119;-84
2020/12/08 06:00:39;;;;;;;43.30;23.85;;;4.70;99.90;;;;;;5068476;28;20028;-84
2020/12/08 06:03:13;;;;;;;44.83;25.00;;;4.70;99.90;;;;;;5068478;28;20028;-84
2020/12/08 06:05:40;;;;;;;54.20;26.30;;;4.70;99.90;;;;;;5074016;28;20036;-84
2020/12/08 06:08:21;;;;;;;43.35;24.95;;;4.70;99.90;;;;;;5078637;28;20020;-84
2020/12/08 06:10:52;;;;;;;49.88;24.98;;;4.70;99.90;;;;;;5096357;28;20126;-84
2020/12/08 06:13:32;;;;;;;43.55;26.10;;;4.80;99.90;;;;;;5078264;28;20024;-84
2020/12/08 06:15:59;;;;;;;43.08;24.55;;;4.80;99.90;;;;;;5070060;28;20123;-85
2020/12/08 06:18:33;;;;;;;41.50;23.83;;;4.80;99.90;;;;;;5072673;28;20051;-84
2020/12/08 06:20:59;;;;;;;47.17;26.02;;;4.80;99.90;;;;;;5060310;28;20063;-84
2020/12/08 06:23:25;;;;;;;43.65;25.23;;;4.80;99.90;;;;;;5046566;28;20085;-83
2020/12/08 06:26:01;;;;;;;45.20;26.58;;;4.90;99.90;;;;;;5063606;28;20409;-84
2020/12/08 06:28:27;;;;;;;41.60;24.67;;;4.90;99.90;;;;;;5043075;28;20020;-84
2020/12/08 06:31:00;;;;;;;42.45;25.08;;;4.90;99.90;;;;;;5046237;28;20330;-82
2020/12/08 06:33:26;;;;;;;50.70;25.90;;;4.90;99.90;;;;;;5047825;28;20040;-82
2020/12/08 06:35:58;;;;;;;51.58;27.00;;;4.90;99.90;;;;;;5049154;28;20041;-83
2020/12/08 06:38:24;;;;;;;49.58;25.85;;;4.90;99.90;;;;;;5060215;28;20017;-83
2020/12/08 06:40:51;;;;;;;47.33;28.05;;;5.00;99.90;;;;;;5068608;28;20082;-82
2020/12/08 06:43:17;;;;;;;46.28;26.67;;;5.00;99.90;;;;;;5050999;28;20024;-82
2020/12/08 06:45:42;;;;;;;43.33;24.75;;;5.00;99.90;;;;;;5052593;28;20037;-82
2020/12/08 06:48:15;;;;;;;50.67;26.85;;;5.00;99.90;;;;;;5048742;28;20028;-82
2020/12/08 06:50:41;;;;;;;44.67;26.15;;;5.00;99.90;;;;;;5051239;28;20039;-82
2020/12/08 06:53:06;;;;;;;56.92;25.65;;;5.00;99.90;;;;;;5071034;28;20046;-82
2020/12/08 06:55:50;;;;;;;47.08;26.58;;;5.00;99.90;;;;;;5074362;28;20140;-83
2020/12/08 06:58:17;;;;;;;45.17;25.45;;;5.10;99.90;;;;;;5071272;28;20127;-83
2020/12/08 07:00:45;;;;;;;55.85;24.88;;;5.10;99.90;;;;;;5069082;28;20107;-83
2020/12/08 07:03:11;;;;;;;40.03;24.17;;;5.20;99.90;;;;;;5068422;28;20115;-83
2020/12/08 07:05:37;;;;;;;50.92;24.10;;;5.10;99.90;;;;;;5069880;28;20195;-83
2020/12/08 07:08:04;;;;;;;38.20;23.58;;;5.10;99.90;;;;;;5065379;28;21527;-83
2020/12/08 07:10:35;;;;;;;42.40;23.95;;;5.20;99.90;;;;;;5070881;28;20038;-83
2020/12/08 07:13:00;;;;;;;38.75;22.15;;;5.20;99.90;;;;;;5068405;28;20048;-83
2020/12/08 07:15:26;;;;;;;39.03;22.60;;;5.20;99.90;;;;;;5070162;28;20396;-83
2020/12/08 07:18:01;;;;;;;51.00;25.08;;;5.20;99.90;;;;;;5066363;28;20043;-82
2020/12/08 07:20:26;;;;;;;70.28;29.55;;;5.20;99.90;;;;;;5086144;28;20117;-84
2020/12/08 07:22:53;;;;;;;42.70;24.38;;;5.20;99.90;;;;;;5068166;28;20473;-83
2020/12/08 07:25:20;;;;;;;45.20;25.08;;;5.20;99.90;;;;;;5065347;28;20051;-83
2020/12/08 07:27:53;;;;;;;45.42;24.70;;;5.20;99.90;;;;;;5064042;28;20093;-82
2020/12/08 07:30:21;;;;;;;55.22;27.73;;;5.20;99.90;;;;;;5066779;28;20093;-84
2020/12/08 07:32:47;;;;;;;49.83;25.60;;;5.20;99.90;;;;;;5065001;28;20126;-84
2020/12/08 07:35:27;;;;;;;44.25;24.55;;;5.20;99.90;;;;;;5065349;28;20056;-83
2020/12/08 07:37:56;;;;;;;51.88;25.95;;;5.20;99.90;;;;;;5073494;28;20092;-84
2020/12/08 07:40:22;;;;;;;46.05;24.55;;;5.20;99.90;;;;;;5071396;28;20203;-83
2020/12/08 07:42:51;;;;;;;58.22;25.05;;;5.30;99.90;;;;;;5083648;28;20027;-83
2020/12/08 07:45:18;;;;;;;54.00;24.75;;;5.20;99.90;;;;;;5074667;28;20192;-83
2020/12/08 07:47:55;;;;;;;43.33;24.38;;;5.20;99.90;;;;;;5064280;28;20032;-83
2020/12/08 07:50:31;;;;;;;43.38;23.45;;;5.20;99.90;;;;;;5064711;28;20089;-83
2020/12/08 07:52:59;;;;;;;48.47;23.60;;;5.10;99.90;;;;;;5047859;28;20028;-83
2020/12/08 07:55:26;;;;;;;42.95;23.83;;;5.00;99.90;;;;;;5064261;28;20798;-83
2020/12/08 07:57:52;;;;;;;44.83;24.63;;;5.00;99.90;;;;;;5058097;28;20073;-84
2020/12/08 08:00:18;;;;;;;48.83;23.95;;;4.90;99.90;;;;;;5062779;28;20036;-83
2020/12/08 08:02:43;;;;;;;48.17;26.10;;;4.90;99.90;;;;;;5064517;28;20376;-83
2020/12/08 08:05:09;;;;;;;47.95;24.05;;;4.80;99.90;;;;;;5059517;28;20034;-85
2020/12/08 08:07:34;;;;;;;43.70;24.65;;;4.70;99.90;;;;;;5065490;28;20093;-84
2020/12/08 08:10:00;;;;;;;47.65;25.30;;;4.70;99.90;;;;;;5066231;28;20042;-83
2020/12/08 08:12:26;;;;;;;42.38;22.20;;;4.70;99.90;;;;;;5062330;28;20112;-84
2020/12/08 08:14:51;;;;;;;46.17;26.02;;;4.60;99.90;;;;;;5081516;28;20031;-84
2020/12/08 08:17:17;;;;;;;51.42;27.40;;;4.60;99.90;;;;;;5059204;28;20036;-83
2020/12/08 08:19:43;;;;;;;52.50;25.33;;;4.60;99.90;;;;;;5063282;28;20037;-84
2020/12/08 08:22:08;;;;;;;52.15;25.38;;;4.50;99.90;;;;;;5059319;28;20502;-83
2020/12/08 08:24:34;;;;;;;46.40;24.35;;;4.50;99.90;;;;;;5061119;28;20028;-84
2020/12/08 08:26:59;;;;;;;47.83;26.75;;;4.40;99.90;;;;;;5058844;28;20119;-84
2020/12/08 08:29:25;;;;;;;52.25;26.52;;;4.40;99.90;;;;;;5062386;28;20028;-86
2020/12/08 08:31:50;;;;;;;49.20;26.65;;;4.40;99.90;;;;;;5060684;28;20024;-87
2020/12/08 08:34:16;;;;;;;49.17;27.02;;;4.40;99.90;;;;;;5066201;28;20111;-86
2020/12/08 08:36:52;;;;;;;54.92;27.35;;;4.40;99.90;;;;;;5060238;28;20040;-87
2020/12/08 08:39:23;;;;;;;48.65;25.52;;;4.40;99.90;;;;;;5057226;28;20121;-84
2020/12/08 08:41:51;;;;;;;49.65;23.98;;;4.40;99.90;;;;;;5058628;28;20033;-85
2020/12/08 08:44:18;;;;;;;54.47;24.17;;;4.40;99.90;;;;;;5074315;28;20068;-83
2020/12/08 08:46:44;;;;;;;52.55;25.67;;;4.40;99.90;;;;;;5047500;28;21545;-83
2020/12/08 08:49:16;;;;;;;45.58;26.25;;;4.40;99.90;;;;;;5056639;28;20104;-84
2020/12/08 08:51:46;;;;;;;47.58;23.83;;;4.40;99.90;;;;;;5059573;28;20031;-84
2020/12/08 08:54:12;;;;;;;58.83;25.55;;;4.40;99.90;;;;;;5055932;28;20044;-83
2020/12/08 08:56:38;;;;;;;48.80;26.08;;;4.50;99.90;;;;;;5048712;28;20032;-86
2020/12/08 08:59:04;;;;;;;48.50;24.98;;;4.50;99.90;;;;;;5051657;28;20021;-85
2020/12/08 09:01:30;;;;;;;57.03;24.85;;;4.50;99.90;;;;;;5048004;28;20073;-86
2020/12/08 09:03:55;;;;;;;52.47;23.42;;;4.50;99.90;;;;;;5041381;28;20063;-85
2020/12/08 09:06:21;;;;;;;42.45;22.85;;;4.50;99.90;;;;;;5056610;28;21485;-83
2020/12/08 09:08:47;;;;;;;38.05;21.42;;;4.50;99.90;;;;;;5060022;28;20031;-85
2020/12/08 09:11:13;;;;;;;51.33;21.73;;;4.40;99.90;;;;;;5069866;28;20058;-84
2020/12/08 09:13:40;;;;;;;37.95;20.27;;;4.40;99.90;;;;;;5064960;28;20154;-87
2020/12/08 09:16:05;;;;;;;50.25;21.83;;;4.50;99.90;;;;;;5061542;28;20488;-86
2020/12/08 09:18:32;;;;;;;42.22;23.10;;;4.60;99.90;;;;;;5061393;28;20080;-85
2020/12/08 09:20:57;;;;;;;41.05;22.15;;;4.70;99.90;;;;;;5061486;28;20044;-85
2020/12/08 09:23:24;;;;;;;47.00;20.30;;;4.70;99.90;;;;;;5065991;28;20050;-86
2020/12/08 09:25:51;;;;;;;43.42;22.48;;;4.80;99.90;;;;;;5067770;28;20091;-85
2020/12/08 09:28:17;;;;;;;44.30;21.63;;;4.80;99.90;;;;;;5060264;28;20457;-85
2020/12/08 09:30:43;;;;;;;45.35;21.33;;;4.90;99.90;;;;;;5080431;28;20032;-85
2020/12/08 09:33:08;;;;;;;39.63;20.33;;;4.90;99.90;;;;;;5061100;28;20031;-86
2020/12/08 09:35:34;;;;;;;40.45;20.60;;;4.80;99.90;;;;;;5066718;28;20035;-83
2020/12/08 09:38:02;;;;;;;39.92;21.38;;;4.80;99.90;;;;;;5080884;28;20099;-84
2020/12/08 09:40:28;;;;;;;41.42;22.30;;;4.90;99.90;;;;;;5075083;28;20075;-84
2020/12/08 09:42:54;;;;;;;37.80;22.88;;;4.90;99.90;;;;;;5057688;28;20048;-84
2020/12/08 09:45:20;;;;;;;41.65;21.75;;;5.00;99.90;;;;;;5059741;28;20032;-84
2020/12/08 09:47:45;;;;;;;43.17;21.80;;;5.00;99.90;;;;;;5061191;28;20042;-83
2020/12/08 09:50:13;;;;;;;41.03;22.02;;;5.00;99.90;;;;;;5061056;28;20627;-84
2020/12/08 09:52:40;;;;;;;36.03;19.45;;;5.00;99.90;;;;;;5062766;28;20429;-84
2020/12/08 09:55:06;;;;;;;46.33;22.38;;;5.00;99.90;;;;;;5061867;28;20090;-84
2020/12/08 09:57:32;;;;;;;43.03;20.70;;;5.10;99.90;;;;;;5067936;28;20474;-84
2020/12/08 09:59:58;;;;;;;36.33;19.75;;;5.00;99.90;;;;;;5088008;28;20040;-86
2020/12/08 10:02:26;;;;;;;44.60;22.10;;;5.10;99.90;;;;;;5086430;28;20492;-84
2020/12/08 10:04:52;;;;;;;45.80;20.40;;;5.10;99.90;;;;;;5078503;28;20021;-85
2020/12/08 10:07:19;;;;;;;42.80;21.33;;;5.10;99.90;;;;;;5063755;28;20114;-87
2020/12/08 10:09:48;;;;;;;41.75;20.70;;;5.00;99.90;;;;;;5063191;28;20026;-87
2020/12/08 10:12:15;;;;;;;36.33;21.08;;;5.10;99.90;;;;;;5063106;28;20062;-85
2020/12/08 10:14:43;;;;;;;43.05;21.52;;;5.10;99.90;;;;;;5065372;28;20071;-87
2020/12/08 10:17:14;;;;;;;42.20;20.63;;;5.10;99.90;;;;;;5066310;28;20035;-85
2020/12/08 10:19:41;;;;;;;37.17;20.90;;;5.20;99.90;;;;;;5063478;28;20068;-83
2020/12/08 10:22:06;;;;;;;46.25;22.92;;;5.10;99.90;;;;;;5063808;28;20077;-83
2020/12/08 10:24:32;;;;;;;36.60;20.95;;;5.20;99.90;;;;;;5061381;28;20036;-84
2020/12/08 10:26:59;;;;;;;53.30;29.52;;;5.30;99.90;;;;;;5073360;28;20032;-85
2020/12/08 10:29:25;;;;;;;40.63;20.63;;;5.30;99.90;;;;;;5064318;28;20098;-85
2020/12/08 10:31:51;;;;;;;39.50;22.80;;;5.30;99.90;;;;;;5055347;28;20032;-84
2020/12/08 10:34:19;;;;;;;48.90;23.10;;;5.40;99.90;;;;;;5059726;28;20493;-85
2020/12/08 10:36:46;;;;;;;44.35;21.70;;;5.40;99.90;;;;;;5059215;28;20148;-84
2020/12/08 10:39:12;;;;;;;37.85;21.83;;;5.40;99.90;;;;;;5043348;28;20039;-84
2020/12/08 10:41:39;;;;;;;50.42;23.52;;;5.50;99.90;;;;;;5057944;28;20048;-85
2020/12/08 10:44:06;;;;;;;41.95;22.67;;;5.50;99.90;;;;;;5055133;28;20052;-85
2020/12/08 10:46:33;;;;;;;41.13;23.05;;;5.60;99.90;;;;;;5042002;28;21803;-87
2020/12/08 10:48:59;;;;;;;39.63;22.33;;;5.60;99.90;;;;;;5059392;28;20463;-87
2020/12/08 10:51:24;;;;;;;42.63;21.92;;;5.70;99.90;;;;;;5060454;28;20163;-85
2020/12/08 10:53:50;;;;;;;39.78;20.98;;;5.70;99.90;;;;;;5057993;28;20040;-86
2020/12/08 10:56:22;;;;;;;38.30;21.65;;;5.80;99.90;;;;;;5060888;28;20151;-83
2020/12/08 10:58:48;;;;;;;;;;;5.80;99.90;;;;;;5069992;28;20050;-84
2020/12/08 11:01:21;;;;;;;47.60;20.83;;;5.90;99.90;;;;;;5045510;28;20357;-86
2020/12/08 11:03:47;;;;;;;37.75;21.40;;;6.00;99.90;;;;;;5043788;28;20048;-86
2020/12/08 11:06:26;;;;;;;41.47;23.17;;;6.10;99.90;;;;;;5066372;28;20093;-85
2020/12/08 11:08:53;;;;;;;46.72;22.40;;;6.10;99.90;;;;;;5063575;28;20035;-85
2020/12/08 11:11:24;;;;;;;40.38;21.02;;;6.00;99.90;;;;;;5064985;28;20040;-85
2020/12/08 11:13:51;;;;;;;41.05;21.70;;;6.00;99.90;;;;;;5056359;28;20059;-85
2020/12/08 11:16:20;;;;;;;36.13;21.17;;;6.00;99.90;;;;;;5035935;28;20037;-87
2020/12/08 11:18:46;;;;;;;51.00;21.88;;;6.00;99.90;;;;;;5026379;28;20060;-84
2020/12/08 11:21:14;;;;;;;40.38;20.20;;;6.10;99.90;;;;;;5018954;28;20131;-86
2020/12/08 11:23:40;;;;;;;33.75;19.90;;;6.20;99.90;;;;;;5018464;28;20035;-86
2020/12/08 11:26:13;;;;;;;41.42;20.20;;;6.30;99.90;;;;;;5023656;28;20037;-86
2020/12/08 11:28:39;;;;;;;40.20;20.27;;;6.40;99.90;;;;;;5014768;28;20050;-86
2020/12/08 11:31:06;;;;;;;37.22;19.83;;;6.90;99.90;;;;;;5025251;28;20024;-86
2020/12/08 11:33:32;;;;;;;28.63;16.90;;;7.50;99.90;;;;;;5046397;28;20146;-87
2020/12/08 11:36:00;;;;;;;33.58;17.45;;;8.30;99.90;;;;;;5020074;28;20041;-85
2020/12/08 11:38:25;;;;;;;29.67;17.25;;;8.60;99.90;;;;;;5028601;28;20040;-85
2020/12/08 11:40:51;;;;;;;29.52;16.02;;;8.60;99.90;;;;;;5016993;28;20044;-85
2020/12/08 11:43:17;;;;;;;31.20;16.95;;;8.30;99.90;;;;;;5009028;28;20072;-85
2020/12/08 11:45:46;;;;;;;28.42;17.13;;;8.40;99.90;;;;;;5009773;28;20041;-85
2020/12/08 11:48:12;;;;;;;30.48;17.15;;;8.00;99.90;;;;;;5058570;28;20048;-85
2020/12/08 11:50:37;;;;;;;53.85;18.45;;;8.10;99.90;;;;;;5066943;28;20081;-86
2020/12/08 11:53:03;;;;;;;29.17;15.77;;;8.70;99.90;;;;;;5070459;28;20032;-85
2020/12/08 11:55:29;;;;;;;35.63;16.15;;;9.00;99.90;;;;;;5070351;28;20081;-85
2020/12/08 11:57:55;;;;;;;28.73;16.40;;;8.70;99.90;;;;;;5075445;28;20032;-86
2020/12/08 12:00:20;;;;;;;34.80;17.30;;;8.50;99.90;;;;;;5054624;28;20123;-86
2020/12/08 12:02:46;;;;;;;30.10;17.73;;;8.40;99.90;;;;;;5051874;28;20094;-85
2020/12/08 12:05:11;;;;;;;32.10;18.27;;;7.80;99.90;;;;;;5078923;28;20035;-84
2020/12/08 12:07:37;;;;;;;39.35;20.05;;;7.60;99.90;;;;;;5075280;28;20103;-84
2020/12/08 12:10:04;;;;;;;33.22;17.80;;;7.60;99.90;;;;;;5056228;28;20443;-86
2020/12/08 12:12:30;;;;;;;36.92;19.00;;;7.60;99.90;;;;;;5086377;28;20448;-87
2020/12/08 12:14:55;;;;;;;32.03;18.95;;;7.50;99.90;;;;;;5038399;28;20029;-85
2020/12/08 12:17:21;;;;;;;38.45;17.00;;;7.30;99.90;;;;;;5049309;28;20061;-85
2020/12/08 12:19:47;;;;;;;38.08;18.27;;;7.00;99.90;;;;;;5065379;28;20044;-85
2020/12/08 12:22:12;;;;;;;31.88;17.00;;;7.00;99.90;;;;;;5048424;28;20067;-85
2020/12/08 12:24:38;;;;;;;31.27;18.38;;;6.90;99.90;;;;;;5047478;28;20044;-85
2020/12/08 12:27:04;;;;;;;28.42;17.52;;;6.90;99.90;;;;;;5059906;28;20048;-84
2020/12/08 12:29:31;;;;;;;44.28;20.88;;;6.80;99.90;;;;;;5040283;28;20048;-85
2020/12/08 12:31:57;;;;;;;29.52;17.33;;;6.90;99.90;;;;;;5041244;28;20028;-86
2020/12/08 12:34:23;;;;;;;30.08;17.30;;;7.00;99.90;;;;;;5023835;28;20346;-85
2020/12/08 12:36:50;;;;;;;32.80;17.00;;;6.90;99.90;;;;;;5027268;28;20036;-85